sensor_id;sensor_type;location;lat;lon;timestamp;P1;durP1;ratioP1;P2;durP2;ratioP2
12451;SDS011;6291;48.924;12.204;2022-12-18T00:04:56;36.78;;;14.55;;
12451;SDS011;6291;48.924;12.204;2022-12-18T00:10:00;54.03;;;17.00;;
12451;SDS011;6291;48.924;12.204;2022-12-18T00:15:05;43.20;;;15.98;;
12451;SDS011;6291;48.924;12.204;2022-12-18T00:20:10;50.38;;;17.90;;
12451;SDS011;6291;48.924;12.204;2022-12-18T00:25:13;38.38;;;16.08;;
12451;SDS011;6291;48.924;12.204;2022-12-18T00:30:18;46.67;;;17.77;;
12451;SDS011;6291;48.924;12.204;2022-12-18T00:35:21;53.80;;;19.80;;
12451;SDS011;6291;48.924;12.204;2022-12-18T00:40:26;39.15;;;15.55;;
12451;SDS011;6291;48.924;12.204;2022-12-18T00:45:31;36.92;;;16.05;;
12451;SDS011;6291;48.924;12.204;2022-12-18T00:50:34;36.57;;;15.00;;
12451;SDS011;6291;48.924;12.204;2022-12-18T00:55:38;38.63;;;14.55;;
12451;SDS011;6291;48.924;12.204;2022-12-18T01:00:44;36.83;;;15.63;;
12451;SDS011;6291;48.924;12.204;2022-12-18T01:05:47;41.10;;;16.63;;
12451;SDS011;6291;48.924;12.204;2022-12-18T01:10:52;40.88;;;15.90;;
12451;SDS011;6291;48.924;12.204;2022-12-18T01:15:57;40.75;;;14.75;;
12451;SDS011;6291;48.924;12.204;2022-12-18T01:21:02;43.13;;;15.75;;
12451;SDS011;6291;48.924;12.204;2022-12-18T01:26:11;37.27;;;15.07;;
12451;SDS011;6291;48.924;12.204;2022-12-18T01:31:18;33.77;;;14.13;;
12451;SDS011;6291;48.924;12.204;2022-12-18T01:36:24;41.20;;;16.10;;
12451;SDS011;6291;48.924;12.204;2022-12-18T01:41:30;40.72;;;16.50;;
12451;SDS011;6291;48.924;12.204;2022-12-18T01:46:55;40.88;;;16.83;;
12451;SDS011;6291;48.924;12.204;2022-12-18T01:51:59;40.25;;;16.40;;
12451;SDS011;6291;48.924;12.204;2022-12-18T01:57:02;39.35;;;14.98;;
12451;SDS011;6291;48.924;12.204;2022-12-18T02:02:07;35.28;;;15.32;;
12451;SDS011;6291;48.924;12.204;2022-12-18T02:07:14;35.75;;;14.40;;
12451;SDS011;6291;48.924;12.204;2022-12-18T02:12:25;33.70;;;14.18;;
12451;SDS011;6291;48.924;12.204;2022-12-18T02:17:39;34.45;;;14.38;;
12451;SDS011;6291;48.924;12.204;2022-12-18T02:22:55;31.00;;;14.17;;
12451;SDS011;6291;48.924;12.204;2022-12-18T02:28:09;32.85;;;15.27;;
12451;SDS011;6291;48.924;12.204;2022-12-18T02:33:15;33.10;;;13.97;;
12451;SDS011;6291;48.924;12.204;2022-12-18T02:38:19;38.92;;;16.55;;
12451;SDS011;6291;48.924;12.204;2022-12-18T02:43:26;31.77;;;13.07;;
12451;SDS011;6291;48.924;12.204;2022-12-18T02:48:32;34.22;;;14.27;;
12451;SDS011;6291;48.924;12.204;2022-12-18T02:53:38;34.50;;;14.23;;
12451;SDS011;6291;48.924;12.204;2022-12-18T02:58:51;29.65;;;14.10;;
12451;SDS011;6291;48.924;12.204;2022-12-18T03:04:18;26.33;;;12.80;;
12451;SDS011;6291;48.924;12.204;2022-12-18T03:09:28;33.80;;;15.20;;
12451;SDS011;6291;48.924;12.204;2022-12-18T03:14:37;30.70;;;13.82;;
12451;SDS011;6291;48.924;12.204;2022-12-18T03:19:43;32.57;;;13.20;;
12451;SDS011;6291;48.924;12.204;2022-12-18T03:24:50;34.70;;;14.00;;
12451;SDS011;6291;48.924;12.204;2022-12-18T03:29:59;30.42;;;13.65;;
12451;SDS011;6291;48.924;12.204;2022-12-18T03:35:11;31.13;;;14.38;;
12451;SDS011;6291;48.924;12.204;2022-12-18T03:40:19;34.00;;;14.70;;
12451;SDS011;6291;48.924;12.204;2022-12-18T03:45:31;35.03;;;14.93;;
12451;SDS011;6291;48.924;12.204;2022-12-18T03:50:42;33.07;;;14.13;;
12451;SDS011;6291;48.924;12.204;2022-12-18T03:55:51;36.17;;;15.82;;
12451;SDS011;6291;48.924;12.204;2022-12-18T04:00:58;34.63;;;14.98;;
12451;SDS011;6291;48.924;12.204;2022-12-18T04:06:07;33.28;;;14.75;;
12451;SDS011;6291;48.924;12.204;2022-12-18T04:11:13;32.13;;;14.37;;
12451;SDS011;6291;48.924;12.204;2022-12-18T04:16:19;32.43;;;12.97;;
12451;SDS011;6291;48.924;12.204;2022-12-18T04:21:26;34.45;;;15.07;;
12451;SDS011;6291;48.924;12.204;2022-12-18T04:26:29;32.07;;;13.63;;
12451;SDS011;6291;48.924;12.204;2022-12-18T04:31:48;31.00;;;14.63;;
12451;SDS011;6291;48.924;12.204;2022-12-18T04:36:51;38.60;;;16.13;;
12451;SDS011;6291;48.924;12.204;2022-12-18T04:41:56;38.63;;;16.93;;
12451;SDS011;6291;48.924;12.204;2022-12-18T04:47:04;36.38;;;15.35;;
12451;SDS011;6291;48.924;12.204;2022-12-18T04:52:07;41.20;;;17.60;;
12451;SDS011;6291;48.924;12.204;2022-12-18T04:57:11;39.73;;;16.70;;
12451;SDS011;6291;48.924;12.204;2022-12-18T05:02:15;39.65;;;15.52;;
12451;SDS011;6291;48.924;12.204;2022-12-18T05:07:19;35.90;;;15.52;;
12451;SDS011;6291;48.924;12.204;2022-12-18T05:12:22;34.90;;;15.00;;
12451;SDS011;6291;48.924;12.204;2022-12-18T05:17:27;38.10;;;16.10;;
12451;SDS011;6291;48.924;12.204;2022-12-18T05:22:30;35.87;;;15.10;;
12451;SDS011;6291;48.924;12.204;2022-12-18T05:27:34;40.17;;;16.85;;
12451;SDS011;6291;48.924;12.204;2022-12-18T05:32:38;41.55;;;17.10;;
12451;SDS011;6291;48.924;12.204;2022-12-18T05:37:42;42.78;;;16.02;;
12451;SDS011;6291;48.924;12.204;2022-12-18T05:42:46;42.27;;;16.87;;
12451;SDS011;6291;48.924;12.204;2022-12-18T05:47:50;39.17;;;17.23;;
12451;SDS011;6291;48.924;12.204;2022-12-18T05:52:54;41.90;;;17.60;;
12451;SDS011;6291;48.924;12.204;2022-12-18T05:57:57;44.42;;;17.50;;
12451;SDS011;6291;48.924;12.204;2022-12-18T06:03:02;37.47;;;15.80;;
12451;SDS011;6291;48.924;12.204;2022-12-18T06:08:06;40.53;;;16.60;;
12451;SDS011;6291;48.924;12.204;2022-12-18T06:13:09;44.20;;;17.42;;
12451;SDS011;6291;48.924;12.204;2022-12-18T06:18:14;47.85;;;17.88;;
12451;SDS011;6291;48.924;12.204;2022-12-18T06:23:17;41.50;;;17.27;;
12451;SDS011;6291;48.924;12.204;2022-12-18T06:28:20;43.75;;;17.55;;
12451;SDS011;6291;48.924;12.204;2022-12-18T06:33:27;40.87;;;16.37;;
12451;SDS011;6291;48.924;12.204;2022-12-18T06:38:31;39.97;;;16.40;;
12451;SDS011;6291;48.924;12.204;2022-12-18T06:43:34;37.17;;;15.15;;
12451;SDS011;6291;48.924;12.204;2022-12-18T06:48:39;43.25;;;16.63;;
12451;SDS011;6291;48.924;12.204;2022-12-18T06:53:43;44.95;;;17.27;;
12451;SDS011;6291;48.924;12.204;2022-12-18T06:58:46;41.95;;;16.02;;
12451;SDS011;6291;48.924;12.204;2022-12-18T07:03:52;44.90;;;17.77;;
12451;SDS011;6291;48.924;12.204;2022-12-18T07:08:57;40.53;;;16.98;;
12451;SDS011;6291;48.924;12.204;2022-12-18T07:14:00;51.43;;;18.63;;
12451;SDS011;6291;48.924;12.204;2022-12-18T07:19:05;49.35;;;18.60;;
12451;SDS011;6291;48.924;12.204;2022-12-18T07:24:08;51.22;;;19.75;;
12451;SDS011;6291;48.924;12.204;2022-12-18T07:29:12;45.67;;;17.50;;
12451;SDS011;6291;48.924;12.204;2022-12-18T07:34:17;41.20;;;16.23;;
12451;SDS011;6291;48.924;12.204;2022-12-18T07:39:20;37.83;;;16.08;;
12451;SDS011;6291;48.924;12.204;2022-12-18T07:44:23;44.17;;;17.63;;
12451;SDS011;6291;48.924;12.204;2022-12-18T07:49:28;43.22;;;18.70;;
12451;SDS011;6291;48.924;12.204;2022-12-18T07:54:32;43.53;;;19.02;;
12451;SDS011;6291;48.924;12.204;2022-12-18T07:59:35;52.95;;;20.67;;
12451;SDS011;6291;48.924;12.204;2022-12-18T08:04:40;42.60;;;17.97;;
12451;SDS011;6291;48.924;12.204;2022-12-18T08:09:43;45.87;;;19.80;;
12451;SDS011;6291;48.924;12.204;2022-12-18T08:14:46;50.40;;;20.75;;
12451;SDS011;6291;48.924;12.204;2022-12-18T08:19:51;47.90;;;20.73;;
12451;SDS011;6291;48.924;12.204;2022-12-18T08:24:54;42.95;;;18.73;;
12451;SDS011;6291;48.924;12.204;2022-12-18T08:29:58;44.45;;;20.58;;
12451;SDS011;6291;48.924;12.204;2022-12-18T08:35:03;44.60;;;18.58;;
12451;SDS011;6291;48.924;12.204;2022-12-18T08:40:07;40.40;;;19.57;;
12451;SDS011;6291;48.924;12.204;2022-12-18T08:45:11;37.40;;;17.88;;
12451;SDS011;6291;48.924;12.204;2022-12-18T08:50:16;37.23;;;17.53;;
12451;SDS011;6291;48.924;12.204;2022-12-18T08:55:19;39.55;;;17.98;;
12451;SDS011;6291;48.924;12.204;2022-12-18T09:00:23;38.72;;;18.48;;
12451;SDS011;6291;48.924;12.204;2022-12-18T09:05:28;33.80;;;17.85;;
12451;SDS011;6291;48.924;12.204;2022-12-18T09:10:32;39.70;;;18.73;;
12451;SDS011;6291;48.924;12.204;2022-12-18T09:15:44;38.37;;;18.90;;
12451;SDS011;6291;48.924;12.204;2022-12-18T09:20:49;35.95;;;18.58;;
12451;SDS011;6291;48.924;12.204;2022-12-18T09:25:58;31.57;;;17.50;;
12451;SDS011;6291;48.924;12.204;2022-12-18T09:31:04;29.35;;;15.50;;
12451;SDS011;6291;48.924;12.204;2022-12-18T09:36:11;26.73;;;15.40;;
12451;SDS011;6291;48.924;12.204;2022-12-18T09:41:19;32.97;;;17.70;;
12451;SDS011;6291;48.924;12.204;2022-12-18T09:46:36;28.92;;;17.10;;
12451;SDS011;6291;48.924;12.204;2022-12-18T09:51:43;29.35;;;15.88;;
12451;SDS011;6291;48.924;12.204;2022-12-18T09:56:50;29.52;;;16.90;;
12451;SDS011;6291;48.924;12.204;2022-12-18T10:01:53;36.33;;;18.47;;
12451;SDS011;6291;48.924;12.204;2022-12-18T10:06:59;36.70;;;18.98;;
12451;SDS011;6291;48.924;12.204;2022-12-18T10:12:13;37.25;;;19.67;;
12451;SDS011;6291;48.924;12.204;2022-12-18T10:17:25;37.80;;;19.35;;
12451;SDS011;6291;48.924;12.204;2022-12-18T10:22:41;39.05;;;21.67;;
12451;SDS011;6291;48.924;12.204;2022-12-18T10:27:54;38.95;;;20.83;;
12451;SDS011;6291;48.924;12.204;2022-12-18T10:33:00;39.15;;;21.17;;
12451;SDS011;6291;48.924;12.204;2022-12-18T10:38:07;38.58;;;19.95;;
12451;SDS011;6291;48.924;12.204;2022-12-18T10:43:25;39.50;;;20.85;;
12451;SDS011;6291;48.924;12.204;2022-12-18T10:48:30;41.88;;;21.05;;
12451;SDS011;6291;48.924;12.204;2022-12-18T10:53:37;42.10;;;22.42;;
12451;SDS011;6291;48.924;12.204;2022-12-18T10:58:43;42.17;;;21.47;;
12451;SDS011;6291;48.924;12.204;2022-12-18T11:03:59;32.90;;;19.08;;
12451;SDS011;6291;48.924;12.204;2022-12-18T11:09:19;39.28;;;21.65;;
12451;SDS011;6291;48.924;12.204;2022-12-18T11:14:24;40.75;;;21.65;;
12451;SDS011;6291;48.924;12.204;2022-12-18T11:19:31;37.00;;;20.50;;
12451;SDS011;6291;48.924;12.204;2022-12-18T11:24:37;36.38;;;19.88;;
12451;SDS011;6291;48.924;12.204;2022-12-18T11:29:41;33.70;;;19.23;;
12451;SDS011;6291;48.924;12.204;2022-12-18T11:34:48;35.22;;;18.75;;
12451;SDS011;6291;48.924;12.204;2022-12-18T11:40:02;32.35;;;18.83;;
12451;SDS011;6291;48.924;12.204;2022-12-18T11:45:22;34.55;;;18.10;;
12451;SDS011;6291;48.924;12.204;2022-12-18T11:50:33;33.67;;;19.30;;
12451;SDS011;6291;48.924;12.204;2022-12-18T11:55:49;35.58;;;19.50;;
12451;SDS011;6291;48.924;12.204;2022-12-18T12:01:07;32.25;;;18.80;;
12451;SDS011;6291;48.924;12.204;2022-12-18T12:06:19;33.10;;;19.27;;
12451;SDS011;6291;48.924;12.204;2022-12-18T12:11:33;35.00;;;19.95;;
12451;SDS011;6291;48.924;12.204;2022-12-18T12:16:47;33.20;;;18.77;;
12451;SDS011;6291;48.924;12.204;2022-12-18T12:21:58;37.38;;;20.80;;
12451;SDS011;6291;48.924;12.204;2022-12-18T12:27:11;32.72;;;18.83;;
12451;SDS011;6291;48.924;12.204;2022-12-18T12:32:25;34.73;;;19.40;;
12451;SDS011;6291;48.924;12.204;2022-12-18T12:37:50;34.78;;;20.23;;
12451;SDS011;6291;48.924;12.204;2022-12-18T12:43:03;33.27;;;19.07;;
12451;SDS011;6291;48.924;12.204;2022-12-18T12:48:22;33.90;;;18.50;;
12451;SDS011;6291;48.924;12.204;2022-12-18T12:53:34;34.08;;;19.40;;
12451;SDS011;6291;48.924;12.204;2022-12-18T12:58:45;36.58;;;20.25;;
12451;SDS011;6291;48.924;12.204;2022-12-18T13:04:00;33.38;;;19.38;;
12451;SDS011;6291;48.924;12.204;2022-12-18T13:09:10;32.63;;;18.63;;
12451;SDS011;6291;48.924;12.204;2022-12-18T13:14:21;33.33;;;19.03;;
12451;SDS011;6291;48.924;12.204;2022-12-18T13:19:26;33.63;;;19.30;;
12451;SDS011;6291;48.924;12.204;2022-12-18T13:24:30;33.20;;;18.73;;
12451;SDS011;6291;48.924;12.204;2022-12-18T13:29:42;34.28;;;19.02;;
12451;SDS011;6291;48.924;12.204;2022-12-18T13:34:48;30.77;;;17.70;;
12451;SDS011;6291;48.924;12.204;2022-12-18T13:39:51;28.93;;;17.50;;
12451;SDS011;6291;48.924;12.204;2022-12-18T13:44:56;30.40;;;18.23;;
12451;SDS011;6291;48.924;12.204;2022-12-18T13:50:00;31.83;;;19.20;;
12451;SDS011;6291;48.924;12.204;2022-12-18T13:55:14;31.35;;;18.50;;
12451;SDS011;6291;48.924;12.204;2022-12-18T14:00:26;29.60;;;19.17;;
12451;SDS011;6291;48.924;12.204;2022-12-18T14:05:32;32.45;;;19.58;;
12451;SDS011;6291;48.924;12.204;2022-12-18T14:10:39;32.50;;;19.10;;
12451;SDS011;6291;48.924;12.204;2022-12-18T14:15:51;34.15;;;18.65;;
12451;SDS011;6291;48.924;12.204;2022-12-18T14:20:57;33.83;;;19.38;;
12451;SDS011;6291;48.924;12.204;2022-12-18T14:26:17;34.77;;;19.83;;
12451;SDS011;6291;48.924;12.204;2022-12-18T14:31:25;34.92;;;19.80;;
12451;SDS011;6291;48.924;12.204;2022-12-18T14:36:30;38.50;;;21.07;;
12451;SDS011;6291;48.924;12.204;2022-12-18T14:41:33;50.83;;;27.23;;
12451;SDS011;6291;48.924;12.204;2022-12-18T14:46:38;44.43;;;25.30;;
12451;SDS011;6291;48.924;12.204;2022-12-18T14:51:46;44.67;;;24.10;;
12451;SDS011;6291;48.924;12.204;2022-12-18T14:56:54;37.63;;;21.42;;
12451;SDS011;6291;48.924;12.204;2022-12-18T15:02:04;39.92;;;22.15;;
12451;SDS011;6291;48.924;12.204;2022-12-18T15:07:16;44.97;;;24.48;;
12451;SDS011;6291;48.924;12.204;2022-12-18T15:12:26;44.97;;;23.20;;
12451;SDS011;6291;48.924;12.204;2022-12-18T15:17:37;42.60;;;23.60;;
12451;SDS011;6291;48.924;12.204;2022-12-18T15:22:41;48.67;;;26.17;;
12451;SDS011;6291;48.924;12.204;2022-12-18T15:27:45;55.45;;;26.35;;
12451;SDS011;6291;48.924;12.204;2022-12-18T15:32:51;51.33;;;26.27;;
12451;SDS011;6291;48.924;12.204;2022-12-18T15:37:55;47.33;;;26.30;;
12451;SDS011;6291;48.924;12.204;2022-12-18T15:42:59;49.85;;;27.30;;
12451;SDS011;6291;48.924;12.204;2022-12-18T15:48:21;53.70;;;28.90;;
12451;SDS011;6291;48.924;12.204;2022-12-18T15:53:25;57.63;;;27.48;;
12451;SDS011;6291;48.924;12.204;2022-12-18T15:58:32;47.47;;;24.83;;
12451;SDS011;6291;48.924;12.204;2022-12-18T16:03:37;50.95;;;27.83;;
12451;SDS011;6291;48.924;12.204;2022-12-18T16:08:41;45.05;;;26.88;;
12451;SDS011;6291;48.924;12.204;2022-12-18T16:13:45;43.03;;;26.13;;
12451;SDS011;6291;48.924;12.204;2022-12-18T16:18:49;49.20;;;26.90;;
12451;SDS011;6291;48.924;12.204;2022-12-18T16:23:53;50.42;;;28.55;;
12451;SDS011;6291;48.924;12.204;2022-12-18T16:28:56;55.70;;;28.67;;
12451;SDS011;6291;48.924;12.204;2022-12-18T16:34:18;54.72;;;28.45;;
12451;SDS011;6291;48.924;12.204;2022-12-18T16:39:25;70.00;;;32.80;;
12451;SDS011;6291;48.924;12.204;2022-12-18T16:44:30;73.97;;;33.03;;
12451;SDS011;6291;48.924;12.204;2022-12-18T16:49:36;64.82;;;31.33;;
12451;SDS011;6291;48.924;12.204;2022-12-18T16:54:39;63.33;;;32.30;;
12451;SDS011;6291;48.924;12.204;2022-12-18T16:59:42;75.03;;;36.97;;
12451;SDS011;6291;48.924;12.204;2022-12-18T17:04:48;64.60;;;32.38;;
12451;SDS011;6291;48.924;12.204;2022-12-18T17:09:51;57.55;;;31.63;;
12451;SDS011;6291;48.924;12.204;2022-12-18T17:14:55;63.90;;;38.33;;
12451;SDS011;6291;48.924;12.204;2022-12-18T17:20:00;53.45;;;31.33;;
12451;SDS011;6291;48.924;12.204;2022-12-18T17:25:06;54.50;;;32.65;;
12451;SDS011;6291;48.924;12.204;2022-12-18T17:30:10;53.67;;;31.70;;
12451;SDS011;6291;48.924;12.204;2022-12-18T17:35:15;50.10;;;30.23;;
12451;SDS011;6291;48.924;12.204;2022-12-18T17:40:19;53.70;;;29.58;;
12451;SDS011;6291;48.924;12.204;2022-12-18T17:45:22;52.92;;;29.15;;
12451;SDS011;6291;48.924;12.204;2022-12-18T17:50:27;47.93;;;26.53;;
12451;SDS011;6291;48.924;12.204;2022-12-18T17:55:30;62.47;;;37.20;;
12451;SDS011;6291;48.924;12.204;2022-12-18T18:00:33;56.83;;;32.50;;
12451;SDS011;6291;48.924;12.204;2022-12-18T18:05:38;50.97;;;28.08;;
12451;SDS011;6291;48.924;12.204;2022-12-18T18:10:42;54.38;;;30.35;;
12451;SDS011;6291;48.924;12.204;2022-12-18T18:15:53;62.35;;;34.05;;
12451;SDS011;6291;48.924;12.204;2022-12-18T18:20:59;49.45;;;27.13;;
12451;SDS011;6291;48.924;12.204;2022-12-18T18:26:06;45.47;;;24.27;;
12451;SDS011;6291;48.924;12.204;2022-12-18T18:31:11;50.63;;;26.57;;
12451;SDS011;6291;48.924;12.204;2022-12-18T18:36:16;50.35;;;26.55;;
12451;SDS011;6291;48.924;12.204;2022-12-18T18:41:19;48.63;;;25.87;;
12451;SDS011;6291;48.924;12.204;2022-12-18T18:46:25;45.38;;;24.42;;
12451;SDS011;6291;48.924;12.204;2022-12-18T18:51:30;48.63;;;27.53;;
12451;SDS011;6291;48.924;12.204;2022-12-18T18:56:35;55.20;;;30.23;;
12451;SDS011;6291;48.924;12.204;2022-12-18T19:01:59;58.42;;;31.85;;
12451;SDS011;6291;48.924;12.204;2022-12-18T19:07:06;50.30;;;28.58;;
12451;SDS011;6291;48.924;12.204;2022-12-18T19:12:10;48.65;;;28.35;;
12451;SDS011;6291;48.924;12.204;2022-12-18T19:17:31;46.97;;;27.05;;
12451;SDS011;6291;48.924;12.204;2022-12-18T19:22:37;47.03;;;25.70;;
12451;SDS011;6291;48.924;12.204;2022-12-18T19:27:40;43.50;;;24.40;;
12451;SDS011;6291;48.924;12.204;2022-12-18T19:32:43;47.55;;;24.52;;
12451;SDS011;6291;48.924;12.204;2022-12-18T19:37:48;44.90;;;24.70;;
12451;SDS011;6291;48.924;12.204;2022-12-18T19:42:51;44.83;;;25.35;;
12451;SDS011;6291;48.924;12.204;2022-12-18T19:47:55;49.03;;;26.43;;
12451;SDS011;6291;48.924;12.204;2022-12-18T19:53:06;54.33;;;28.13;;
12451;SDS011;6291;48.924;12.204;2022-12-18T19:58:11;53.63;;;29.00;;
12451;SDS011;6291;48.924;12.204;2022-12-18T20:03:14;54.80;;;29.15;;
12451;SDS011;6291;48.924;12.204;2022-12-18T20:08:34;58.03;;;29.83;;
12451;SDS011;6291;48.924;12.204;2022-12-18T20:13:38;50.75;;;29.35;;
12451;SDS011;6291;48.924;12.204;2022-12-18T20:18:42;58.00;;;29.90;;
12451;SDS011;6291;48.924;12.204;2022-12-18T20:23:47;60.05;;;30.90;;
12451;SDS011;6291;48.924;12.204;2022-12-18T20:28:50;58.45;;;30.08;;
12451;SDS011;6291;48.924;12.204;2022-12-18T20:33:54;57.90;;;31.10;;
12451;SDS011;6291;48.924;12.204;2022-12-18T20:39:05;54.43;;;29.47;;
12451;SDS011;6291;48.924;12.204;2022-12-18T20:44:13;55.70;;;30.38;;
12451;SDS011;6291;48.924;12.204;2022-12-18T20:49:24;60.75;;;31.40;;
12451;SDS011;6291;48.924;12.204;2022-12-18T20:54:30;59.73;;;31.63;;
12451;SDS011;6291;48.924;12.204;2022-12-18T20:59:33;54.73;;;30.23;;
12451;SDS011;6291;48.924;12.204;2022-12-18T21:04:37;54.47;;;29.15;;
12451;SDS011;6291;48.924;12.204;2022-12-18T21:09:42;48.93;;;26.70;;
12451;SDS011;6291;48.924;12.204;2022-12-18T21:14:45;45.63;;;25.77;;
12451;SDS011;6291;48.924;12.204;2022-12-18T21:19:50;44.10;;;26.08;;
12451;SDS011;6291;48.924;12.204;2022-12-18T21:24:56;45.25;;;24.80;;
12451;SDS011;6291;48.924;12.204;2022-12-18T21:30:00;42.05;;;24.60;;
12451;SDS011;6291;48.924;12.204;2022-12-18T21:35:04;45.45;;;24.88;;
12451;SDS011;6291;48.924;12.204;2022-12-18T21:40:10;43.03;;;24.73;;
12451;SDS011;6291;48.924;12.204;2022-12-18T21:45:14;42.03;;;24.27;;
12451;SDS011;6291;48.924;12.204;2022-12-18T21:50:18;45.00;;;25.37;;
12451;SDS011;6291;48.924;12.204;2022-12-18T21:55:22;46.17;;;26.05;;
12451;SDS011;6291;48.924;12.204;2022-12-18T22:00:26;50.22;;;26.67;;
12451;SDS011;6291;48.924;12.204;2022-12-18T22:05:30;52.78;;;27.58;;
12451;SDS011;6291;48.924;12.204;2022-12-18T22:10:34;43.20;;;24.98;;
12451;SDS011;6291;48.924;12.204;2022-12-18T22:15:38;43.63;;;25.80;;
12451;SDS011;6291;48.924;12.204;2022-12-18T22:20:41;49.87;;;26.40;;
12451;SDS011;6291;48.924;12.204;2022-12-18T22:25:46;48.50;;;25.95;;
12451;SDS011;6291;48.924;12.204;2022-12-18T22:30:49;45.55;;;26.10;;
12451;SDS011;6291;48.924;12.204;2022-12-18T22:36:03;45.00;;;25.67;;
12451;SDS011;6291;48.924;12.204;2022-12-18T22:41:08;46.13;;;25.73;;
12451;SDS011;6291;48.924;12.204;2022-12-18T22:46:12;47.85;;;26.15;;
12451;SDS011;6291;48.924;12.204;2022-12-18T22:51:17;44.60;;;26.25;;
12451;SDS011;6291;48.924;12.204;2022-12-18T22:56:23;45.75;;;25.27;;
12451;SDS011;6291;48.924;12.204;2022-12-18T23:01:27;46.92;;;26.85;;
12451;SDS011;6291;48.924;12.204;2022-12-18T23:06:33;46.13;;;26.20;;
12451;SDS011;6291;48.924;12.204;2022-12-18T23:11:40;43.85;;;23.98;;
12451;SDS011;6291;48.924;12.204;2022-12-18T23:16:43;42.38;;;23.20;;
12451;SDS011;6291;48.924;12.204;2022-12-18T23:21:49;52.42;;;28.85;;
12451;SDS011;6291;48.924;12.204;2022-12-18T23:26:56;52.72;;;27.48;;
12451;SDS011;6291;48.924;12.204;2022-12-18T23:31:59;48.10;;;26.58;;
12451;SDS011;6291;48.924;12.204;2022-12-18T23:37:03;49.03;;;26.08;;
12451;SDS011;6291;48.924;12.204;2022-12-18T23:42:08;43.87;;;25.60;;
12451;SDS011;6291;48.924;12.204;2022-12-18T23:47:14;47.20;;;25.95;;
12451;SDS011;6291;48.924;12.204;2022-12-18T23:52:17;45.08;;;24.90;;
12451;SDS011;6291;48.924;12.204;2022-12-18T23:57:22;43.50;;;24.73;;
